Hauptseite
METAR-TAF:

METAR-TAF

Flughäfen :

Flughafen Weeze

Weeze, Deutschland

Breite: 51-36-09N, Länge: 006-08-32E, Höhe: 32 m

Beobachtung

Neuester Wetterbericht von vor 4 Stunden und 7 Minuten, um 21:50 UTC
Wind 4 kt aus West/Nordwest, variierte zwischen West/Südwest und Nord/Nordwest
Temperatur 21°C
Luftfeuchtigkeit 53%
Luftdruck 1011 hPa
Sichtweite 10 km oder mehr
keine Wolken unter 1500 m und keine Kumulonimbus oder Gewitterwolken

METAR: EDLV 202150Z 29004KT 250V340 CAVOK 21/11 Q1011

Zeit: 03:57 (01:57 UTC)

Prognose

Neuester Wetterbericht von vor 8 Stunden und 57 Minuten, um 17:00 UTC
Gültige Prognose vom 20 um 18 UTC bis 21 um 18 UTC
Wind 5 kt aus Nordwest
Sichtweite 10 km oder mehr
keine Wolken unter 1500 m und keine Kumulonimbus oder Gewitterwolken
Zeitweise
vom 20 um 18 UTC bis 21 um 12 UTC
Wind 3 kt aus unterschiedlichen Richtungen

TAF: EDLV 201700Z 2018/2118 31005KT CAVOK TEMPO 2018/2112 VRB03KT

Wetterbeobachtungen und Prognosen von mehr als 4000 Flughäfen (METAR und TAF Bericht).

Die verfügbaren Stationen werden durch gelbe und rote Markierungen auf der Karte dargestellt.

Führen Sie die Maus auf sie, um den Namen der Station zu sehen.

Darauf klicken, um die Beobachtung von Wetterbeobachtungen und Prognosen zu sehen.

Um die Karte zu ändern : klicken Sie auf den grünen Tasten mit einem schwarzen Kreuz Zum Vergrößern, auf den grünen Button mit einem Gedankenstrich zu verkleinern, oder auf die grünen Pfeile für benachbarte Karten.


METAR-TAF: